createdAt,value
2022-09-24T00:02:38.688Z,13.69
2022-09-24T00:07:48.880Z,13.61
2022-09-24T00:13:03.115Z,13.55
2022-09-24T00:18:15.435Z,13.48
2022-09-24T00:23:33.963Z,13.40
2022-09-24T00:28:54.094Z,13.34
2022-09-24T00:33:59.428Z,13.27
2022-09-24T00:39:07.043Z,13.24
2022-09-24T00:45:01.935Z,13.20
2022-09-24T00:50:20.311Z,13.12
2022-09-24T00:55:30.404Z,13.10
2022-09-24T01:00:46.180Z,13.12
2022-09-24T01:05:52.303Z,13.13
2022-09-24T01:11:16.016Z,13.12
2022-09-24T01:16:40.390Z,13.11
2022-09-24T01:21:51.182Z,13.05
2022-09-24T01:27:19.958Z,13.04
2022-09-24T01:32:39.976Z,13.03
2022-09-24T01:38:02.554Z,13.06
2022-09-24T01:43:24.535Z,13.06
2022-09-24T01:48:37.846Z,13.10
2022-09-24T01:53:56.511Z,13.11
2022-09-24T01:59:08.649Z,13.05
2022-09-24T02:04:33.934Z,13.01
2022-09-24T02:09:41.844Z,12.99
2022-09-24T02:14:50.978Z,12.96
2022-09-24T02:20:16.166Z,12.98
2022-09-24T02:31:06.231Z,12.96
2022-09-24T02:36:17.574Z,12.97
2022-09-24T02:41:27.305Z,12.93
2022-09-24T02:46:40.643Z,12.90
2022-09-24T02:52:01.235Z,12.90
2022-09-24T02:57:13.234Z,12.88
2022-09-24T03:02:22.057Z,12.84
2022-09-24T03:07:37.261Z,12.83
2022-09-24T03:12:46.250Z,12.80
2022-09-24T03:17:58.926Z,12.79
2022-09-24T03:23:08.773Z,12.74
2022-09-24T03:28:24.455Z,12.73
2022-09-24T03:33:35.437Z,12.76
2022-09-24T03:38:55.419Z,12.76
2022-09-24T03:44:06.580Z,12.75
2022-09-24T03:49:19.649Z,12.76
2022-09-24T03:54:27.739Z,12.78
2022-09-24T03:59:36.200Z,12.78
2022-09-24T04:04:56.617Z,12.76
2022-09-24T04:10:10.253Z,12.72
2022-09-24T04:15:24.963Z,12.68
2022-09-24T04:20:38.705Z,12.64
2022-09-24T04:25:49.577Z,12.58
2022-09-24T04:31:07.261Z,12.57
2022-09-24T04:36:15.327Z,12.52
2022-09-24T04:41:32.673Z,12.47
2022-09-24T04:46:49.139Z,12.43
2022-09-24T04:52:05.008Z,12.39
2022-09-24T04:57:30.131Z,12.39
2022-09-24T05:02:40.394Z,12.34
2022-09-24T05:08:00.843Z,12.27
2022-09-24T05:13:07.799Z,12.22
2022-09-24T05:18:11.949Z,12.19
2022-09-24T05:23:19.799Z,12.19
2022-09-24T05:28:34.856Z,12.16
2022-09-24T05:33:53.098Z,12.13
2022-09-24T05:39:02.234Z,12.12
2022-09-24T05:44:33.011Z,12.12
2022-09-24T05:56:00.929Z,12.12
2022-09-24T06:01:15.656Z,12.15
2022-09-24T06:06:25.936Z,12.21
2022-09-24T06:11:40.975Z,12.30
2022-09-24T06:16:50.084Z,12.37
2022-09-24T06:22:04.241Z,12.48
2022-09-24T06:27:15.025Z,12.59
2022-09-24T06:32:30.961Z,12.72
2022-09-24T06:37:49.984Z,12.87
2022-09-24T06:43:03.068Z,13.09
2022-09-24T06:48:15.095Z,13.38
2022-09-24T06:53:20.317Z,13.74
2022-09-24T06:58:35.472Z,14.26
2022-09-24T07:04:01.252Z,14.82
2022-09-24T07:09:27.194Z,15.16
2022-09-24T07:14:39.275Z,15.21
2022-09-24T07:20:05.203Z,15.40
2022-09-24T07:25:17.590Z,15.51
2022-09-24T07:30:22.355Z,15.55
2022-09-24T07:35:30.001Z,15.76
2022-09-24T07:40:48.146Z,15.92
2022-09-24T07:46:08.482Z,16.13
2022-09-24T07:51:30.460Z,16.14
2022-09-24T07:56:55.437Z,16.15
2022-09-24T08:02:10.493Z,16.27
2022-09-24T08:07:32.372Z,16.38
2022-09-24T08:12:44.153Z,16.37
2022-09-24T08:18:21.609Z,16.36
2022-09-24T08:23:35.850Z,16.35
2022-09-24T08:28:50.638Z,16.43
2022-09-24T08:33:57.715Z,16.48
2022-09-24T08:39:58.458Z,16.55
2022-09-24T08:45:26.973Z,16.63
2022-09-24T08:50:35.532Z,16.84
2022-09-24T08:55:55.437Z,17.02
2022-09-24T09:01:20.241Z,17.23
2022-09-24T09:06:48.695Z,17.38
2022-09-24T09:12:04.091Z,17.57
2022-09-24T09:17:33.539Z,17.77
2022-09-24T09:22:49.951Z,17.87
2022-09-24T09:28:17.116Z,18.09
2022-09-24T09:33:36.371Z,18.27
2022-09-24T09:39:08.182Z,18.44
2022-09-24T09:44:38.159Z,18.76
2022-09-24T09:49:51.025Z,18.97
2022-09-24T09:54:55.022Z,19.05
2022-09-24T10:00:05.250Z,19.09
2022-09-24T10:05:27.261Z,19.19
2022-09-24T10:10:33.418Z,19.23
2022-09-24T10:15:51.356Z,19.20
2022-09-24T10:21:32.371Z,19.42
2022-09-24T10:26:44.537Z,19.49
2022-09-24T10:31:57.526Z,19.65
2022-09-24T10:37:14.516Z,19.61
2022-09-24T10:42:40.087Z,19.75
2022-09-24T10:47:57.237Z,19.85
2022-09-24T10:53:09.892Z,20.05
2022-09-24T10:58:37.931Z,20.36
2022-09-24T11:04:39.137Z,20.78
2022-09-24T11:15:33.953Z,21.22
2022-09-24T11:21:01.700Z,21.42
2022-09-24T11:26:44.629Z,21.49
2022-09-24T11:32:09.582Z,21.46
2022-09-24T11:38:02.334Z,21.76
2022-09-24T11:43:38.540Z,22.01
2022-09-24T11:49:19.174Z,22.07
2022-09-24T11:54:41.765Z,22.19
2022-09-24T12:00:09.907Z,22.22
2022-09-24T12:05:39.314Z,22.11
2022-09-24T12:11:07.145Z,22.03
2022-09-24T12:22:30.644Z,21.69
2022-09-24T12:27:45.568Z,21.59
2022-09-24T12:32:59.325Z,21.54
2022-09-24T12:38:19.903Z,21.56
2022-09-24T12:43:48.409Z,21.62
2022-09-24T12:48:55.760Z,21.71
2022-09-24T12:54:09.431Z,21.67
2022-09-24T12:59:34.417Z,21.53
2022-09-24T13:04:42.214Z,21.65
2022-09-24T13:10:05.772Z,21.68
2022-09-24T13:15:42.469Z,21.74
2022-09-24T13:21:01.187Z,21.72
2022-09-24T13:26:09.543Z,21.81
2022-09-24T13:31:28.568Z,21.82
2022-09-24T13:36:41.232Z,21.84
2022-09-24T13:41:59.100Z,21.90
2022-09-24T13:47:17.119Z,21.92
2022-09-24T13:52:37.356Z,21.98
2022-09-24T13:57:51.147Z,21.96
2022-09-24T14:03:07.863Z,21.96
2022-09-24T14:13:47.762Z,21.86
2022-09-24T14:19:01.822Z,21.75
2022-09-24T14:24:08.910Z,21.68
2022-09-24T14:29:18.116Z,21.58
2022-09-24T14:34:28.264Z,21.46
2022-09-24T14:39:31.369Z,21.37
2022-09-24T14:44:37.461Z,21.36
2022-09-24T14:49:45.794Z,21.21
2022-09-24T14:54:49.210Z,21.10
2022-09-24T14:59:53.976Z,21.00
2022-09-24T15:05:04.811Z,20.94
2022-09-24T15:10:21.478Z,20.89
2022-09-24T15:15:32.359Z,20.86
2022-09-24T15:20:36.699Z,20.77
2022-09-24T15:25:44.550Z,20.65
2022-09-24T15:31:11.331Z,20.63
2022-09-24T15:37:03.775Z,20.50
2022-09-24T15:42:31.794Z,20.45
2022-09-24T15:47:53.170Z,20.37
2022-09-24T15:53:34.612Z,20.33
2022-09-24T15:58:49.869Z,20.22
2022-09-24T16:09:49.057Z,20.16
2022-09-24T16:15:01.511Z,20.02
2022-09-24T16:20:10.799Z,19.97
2022-09-24T16:25:25.593Z,19.91
2022-09-24T16:30:43.772Z,19.88
2022-09-24T16:35:52.104Z,19.79
2022-09-24T16:41:05.671Z,19.75
2022-09-24T16:46:20.272Z,19.68
2022-09-24T16:56:53.988Z,19.51
2022-09-24T17:02:21.200Z,19.42
2022-09-24T17:07:33.750Z,19.39
2022-09-24T17:12:39.989Z,19.28
2022-09-24T17:17:58.027Z,19.22
2022-09-24T17:23:12.164Z,19.13
2022-09-24T17:28:22.198Z,19.07
2022-09-24T17:33:44.603Z,18.99
2022-09-24T17:38:59.506Z,18.94
2022-09-24T17:44:06.049Z,18.92
2022-09-24T17:49:17.865Z,18.84
2022-09-24T17:54:42.714Z,18.79
2022-09-24T17:59:53.087Z,18.74
2022-09-24T18:05:02.245Z,18.72
2022-09-24T18:10:12.285Z,18.68
2022-09-24T18:15:19.080Z,18.65
2022-09-24T18:20:29.154Z,18.63
2022-09-24T18:25:43.760Z,18.60
2022-09-24T18:30:49.125Z,18.51
2022-09-24T18:35:57.768Z,18.39
2022-09-24T18:41:09.015Z,18.30
2022-09-24T18:46:25.184Z,18.19
2022-09-24T18:51:34.794Z,18.06
2022-09-24T18:56:43.945Z,17.96
2022-09-24T19:01:53.909Z,17.83
2022-09-24T19:07:05.855Z,17.76
2022-09-24T19:12:32.818Z,17.68
2022-09-24T19:18:00.639Z,17.59
2022-09-24T19:23:15.450Z,17.47
2022-09-24T19:28:28.488Z,17.43
2022-09-24T19:33:38.297Z,17.32
2022-09-24T19:38:54.384Z,17.21
2022-09-24T19:44:08.455Z,17.14
2022-09-24T19:49:18.943Z,17.06
2022-09-24T19:54:27.563Z,16.94
2022-09-24T19:59:45.871Z,16.87
2022-09-24T20:04:56.691Z,16.77
2022-09-24T20:10:19.619Z,16.72
2022-09-24T20:15:55.573Z,16.63
2022-09-24T20:21:21.777Z,16.48
2022-09-24T20:27:04.736Z,16.35
2022-09-24T20:32:16.775Z,16.25
2022-09-24T20:37:31.563Z,16.18
2022-09-24T20:42:41.090Z,16.08
2022-09-24T20:48:21.676Z,15.98
2022-09-24T20:53:31.565Z,15.82
2022-09-24T20:58:42.467Z,15.74
2022-09-24T21:04:03.307Z,15.67
2022-09-24T21:09:22.962Z,15.56
2022-09-24T21:14:36.998Z,15.46
2022-09-24T21:19:46.379Z,15.38
2022-09-24T21:25:09.332Z,15.30
2022-09-24T21:30:37.299Z,15.17
2022-09-24T21:35:47.970Z,15.07
2022-09-24T21:41:05.601Z,14.97
2022-09-24T21:46:12.155Z,14.88
2022-09-24T21:51:20.596Z,14.81
2022-09-24T21:56:36.834Z,14.72
2022-09-24T22:01:46.880Z,14.63
2022-09-24T22:07:12.770Z,14.54
2022-09-24T22:12:28.225Z,14.47
2022-09-24T22:17:34.777Z,14.40
2022-09-24T22:22:44.867Z,14.34
2022-09-24T22:27:58.725Z,14.31
2022-09-24T22:33:09.978Z,14.26
2022-09-24T22:38:31.209Z,14.20
2022-09-24T22:43:52.817Z,14.18
2022-09-24T22:49:04.459Z,14.13
2022-09-24T22:54:33.439Z,14.11
2022-09-24T22:59:42.749Z,14.07
2022-09-24T23:05:02.148Z,14.05
2022-09-24T23:10:25.941Z,13.98
2022-09-24T23:15:37.158Z,13.94
2022-09-24T23:20:53.469Z,13.90
2022-09-24T23:26:14.243Z,13.86
2022-09-24T23:31:35.374Z,13.82
2022-09-24T23:36:45.437Z,13.77
2022-09-24T23:42:07.382Z,13.73
2022-09-24T23:53:12.308Z,13.64
